Time;durP1;ratioP1;P1;durP2;ratioP2;P2;SDS_P1;SDS_P2;PMS_P1;PMS_P2;Temp;Humidity;BMP_temperature;BMP_pressure;BME280_temperature;BME280_humidity;BME280_pressure;Samples;Min_cycle;Max_cycle;Signal;HPM_P1;HPM_P2
2021/09/16 00:01:03;;;;;;;7.40;3.53;;;17.90;99.90;;;;;;5131042;27;20440;-68
2021/09/16 00:03:31;;;;;;;4.87;3.93;;;18.00;99.90;;;;;;5133936;27;20973;-68
2021/09/16 00:05:58;;;;;;;7.37;3.67;;;18.10;99.90;;;;;;5134473;27;20464;-67
2021/09/16 00:08:25;;;;;;;4.80;3.70;;;18.10;99.90;;;;;;5134420;27;20448;-67
2021/09/16 00:10:52;;;;;;;6.47;3.60;;;18.20;99.90;;;;;;5134491;27;20440;-68
2021/09/16 00:13:19;;;;;;;3.93;3.13;;;18.20;99.90;;;;;;5133488;27;20543;-67
2021/09/16 00:15:45;;;;;;;5.47;4.10;;;18.10;99.90;;;;;;5133940;27;20491;-67
2021/09/16 00:18:12;;;;;;;5.30;3.27;;;18.20;99.90;;;;;;5134119;27;20531;-67
2021/09/16 00:20:41;;;;;;;5.03;2.97;;;18.20;99.90;;;;;;5133876;27;20452;-67
2021/09/16 00:23:08;;;;;;;3.20;2.70;;;18.10;99.90;;;;;;5133883;27;20487;-67
2021/09/16 00:25:35;;;;;;;4.60;3.67;;;18.00;99.90;;;;;;5134031;27;20973;-67
2021/09/16 00:28:02;;;;;;;4.03;3.20;;;18.00;99.90;;;;;;5134495;27;20467;-67
2021/09/16 00:30:29;;;;;;;4.67;3.47;;;18.10;99.90;;;;;;5134105;27;20465;-67
2021/09/16 00:32:56;;;;;;;4.30;3.30;;;18.10;99.90;;;;;;5133682;27;20452;-67
2021/09/16 00:35:23;;;;;;;4.20;3.07;;;18.10;99.90;;;;;;5133917;27;21003;-67
2021/09/16 00:37:51;;;;;;;4.80;3.40;;;18.10;99.90;;;;;;5133760;27;21020;-67
2021/09/16 00:40:18;;;;;;;6.07;3.63;;;18.10;99.90;;;;;;5133275;27;20456;-68
2021/09/16 00:42:45;;;;;;;4.80;3.00;;;18.10;99.90;;;;;;5133147;27;20445;-67
2021/09/16 00:45:13;;;;;;;4.53;2.80;;;18.10;99.90;;;;;;5133140;27;20466;-69
2021/09/16 00:47:44;;;;;;;4.23;3.00;;;18.10;99.90;;;;;;5133759;27;20447;-67
2021/09/16 00:50:12;;;;;;;3.80;2.93;;;18.20;99.90;;;;;;5133583;27;20442;-67
2021/09/16 00:52:41;;;;;;;4.37;2.87;;;18.20;99.90;;;;;;5133053;27;20493;-67
2021/09/16 00:55:11;;;;;;;4.40;2.80;;;18.20;99.90;;;;;;5133188;27;20509;-67
2021/09/16 00:57:40;;;;;;;5.27;2.90;;;18.30;99.90;;;;;;5133066;27;20450;-67
2021/09/16 01:00:10;;;;;;;3.83;2.93;;;18.30;99.90;;;;;;5133300;27;20444;-67
2021/09/16 01:02:37;;;;;;;4.33;2.50;;;18.30;99.90;;;;;;5132617;27;20452;-67
2021/09/16 01:05:05;;;;;;;3.90;2.90;;;18.40;99.90;;;;;;5133014;27;20464;-67
2021/09/16 01:07:34;;;;;;;3.57;2.70;;;18.40;99.90;;;;;;5132978;27;20476;-67
2021/09/16 01:10:02;;;;;;;5.00;3.03;;;18.40;99.90;;;;;;5132948;27;20972;-67
2021/09/16 01:12:30;;;;;;;5.83;2.83;;;18.40;99.90;;;;;;5132279;27;20455;-67
2021/09/16 01:14:57;;;;;;;4.10;2.77;;;18.40;99.90;;;;;;5132614;27;20472;-67
2021/09/16 01:17:24;;;;;;;4.20;2.83;;;18.50;99.90;;;;;;5132792;27;20459;-67
2021/09/16 01:19:51;;;;;;;3.90;2.93;;;18.50;99.90;;;;;;5132912;27;20527;-68
2021/09/16 01:22:20;;;;;;;3.20;2.40;;;18.50;99.90;;;;;;5132383;27;20968;-67
2021/09/16 01:24:49;;;;;;;4.70;3.20;;;18.50;99.90;;;;;;5132700;27;20468;-67
2021/09/16 01:27:16;;;;;;;4.00;2.40;;;18.50;99.90;;;;;;5132996;27;20450;-68
2021/09/16 01:29:44;;;;;;;4.70;3.07;;;18.60;99.90;;;;;;5132813;27;20444;-67
2021/09/16 01:32:11;;;;;;;4.30;2.60;;;18.60;99.90;;;;;;5132332;27;20451;-68
2021/09/16 01:34:38;;;;;;;3.70;2.70;;;18.60;99.90;;;;;;5132743;27;20539;-68
2021/09/16 01:37:07;;;;;;;4.13;2.50;;;18.60;99.90;;;;;;5132543;27;20435;-68
2021/09/16 01:39:35;;;;;;;6.63;2.73;;;18.60;99.90;;;;;;5132701;27;20458;-67
2021/09/16 01:42:04;;;;;;;3.37;2.53;;;18.60;99.90;;;;;;5132620;27;20460;-67
2021/09/16 01:44:33;;;;;;;4.53;3.13;;;18.60;99.90;;;;;;5132615;27;20445;-67
2021/09/16 01:47:00;;;;;;;4.07;2.70;;;18.60;99.90;;;;;;5132572;27;20444;-68
2021/09/16 01:49:27;;;;;;;4.23;2.80;;;18.70;99.90;;;;;;5132462;27;20450;-67
2021/09/16 01:51:54;;;;;;;4.30;2.87;;;18.70;99.90;;;;;;5131877;27;20440;-67
2021/09/16 01:54:21;;;;;;;5.00;2.57;;;18.70;99.90;;;;;;5132239;27;20447;-68
2021/09/16 01:56:48;;;;;;;4.77;2.33;;;18.60;99.90;;;;;;5132234;27;20571;-68
2021/09/16 01:59:17;;;;;;;4.67;2.37;;;18.50;99.90;;;;;;5132554;27;20449;-68
2021/09/16 02:01:44;;;;;;;4.20;2.73;;;18.30;99.90;;;;;;5133740;27;20436;-68
2021/09/16 02:04:10;;;;;;;5.43;2.63;;;18.10;99.90;;;;;;5138705;27;20442;-68
2021/09/16 02:06:37;;;;;;;5.77;2.90;;;17.90;99.90;;;;;;5141732;27;20551;-69
2021/09/16 02:09:04;;;;;;;3.93;2.70;;;17.80;99.90;;;;;;5146543;27;20872;-68
2021/09/16 02:11:31;;;;;;;4.73;2.70;;;17.80;99.90;;;;;;5133971;27;20813;-68
2021/09/16 02:13:58;;;;;;;4.13;2.17;;;17.70;99.90;;;;;;5131758;27;20831;-68
2021/09/16 02:16:26;;;;;;;4.30;2.90;;;17.70;99.90;;;;;;5131508;27;20476;-68
2021/09/16 02:18:53;;;;;;;2.77;1.70;;;17.60;99.90;;;;;;5131900;27;20897;-68
2021/09/16 02:21:20;;;;;;;3.90;2.53;;;17.60;99.90;;;;;;5131775;27;20444;-68
2021/09/16 02:23:47;;;;;;;3.00;2.40;;;17.60;99.90;;;;;;5130886;27;20942;-68
2021/09/16 02:26:14;;;;;;;5.03;2.90;;;17.50;99.90;;;;;;5131869;27;20474;-68
2021/09/16 02:28:40;;;;;;;5.20;3.10;;;17.50;99.90;;;;;;5131887;27;20437;-68
2021/09/16 02:31:08;;;;;;;5.00;2.53;;;17.50;99.90;;;;;;5131513;27;20460;-68
2021/09/16 02:33:36;;;;;;;3.20;2.63;;;17.50;99.90;;;;;;5131033;27;20535;-68
2021/09/16 02:36:05;;;;;;;5.20;3.40;;;17.50;99.90;;;;;;5131870;27;20484;-69
2021/09/16 02:38:31;;;;;;;4.57;2.70;;;17.50;99.90;;;;;;5131527;27;20444;-68
2021/09/16 02:40:59;;;;;;;5.00;3.07;;;17.40;99.90;;;;;;5131756;27;20456;-68
2021/09/16 02:43:25;;;;;;;5.07;2.70;;;17.50;99.90;;;;;;5131100;27;20470;-68
2021/09/16 02:45:53;;;;;;;4.27;2.90;;;17.40;99.90;;;;;;5131480;27;21193;-68
2021/09/16 02:48:20;;;;;;;3.83;2.73;;;17.40;99.90;;;;;;5131193;27;20451;-68
2021/09/16 02:50:49;;;;;;;5.03;2.70;;;17.40;99.90;;;;;;5131726;27;20535;-68
2021/09/16 02:53:16;;;;;;;6.53;2.77;;;17.50;99.90;;;;;;5130911;27;20528;-68
2021/09/16 02:55:43;;;;;;;4.60;2.60;;;17.50;99.90;;;;;;5131266;27;21007;-68
2021/09/16 02:58:10;;;;;;;4.13;3.03;;;17.50;99.90;;;;;;5131058;27;20452;-68
2021/09/16 03:00:37;;;;;;;3.60;3.07;;;17.50;99.90;;;;;;5131505;27;20440;-68
2021/09/16 03:03:05;;;;;;;5.00;3.30;;;17.50;99.90;;;;;;5131170;27;20506;-68
2021/09/16 03:05:32;;;;;;;4.37;2.70;;;17.50;99.90;;;;;;5131261;27;20457;-68
2021/09/16 03:08:00;;;;;;;4.47;3.07;;;17.40;99.90;;;;;;5131175;27;20448;-68
2021/09/16 03:10:27;;;;;;;4.17;3.03;;;17.50;99.90;;;;;;5131204;27;20459;-68
2021/09/16 03:12:55;;;;;;;5.37;2.97;;;17.50;99.90;;;;;;5130842;27;20455;-68
2021/09/16 03:15:22;;;;;;;4.03;2.90;;;17.50;99.90;;;;;;5131337;27;21127;-68
2021/09/16 03:17:49;;;;;;;5.10;3.37;;;17.40;99.90;;;;;;5131237;27;20953;-68
2021/09/16 03:20:16;;;;;;;7.80;3.40;;;17.50;99.90;;;;;;5131248;27;20447;-67
2021/09/16 03:22:43;;;;;;;5.10;3.10;;;17.50;99.90;;;;;;5130552;27;20902;-68
2021/09/16 03:25:13;;;;;;;4.70;3.20;;;17.50;99.90;;;;;;5130892;27;20543;-67
2021/09/16 03:27:40;;;;;;;9.50;4.40;;;17.50;99.90;;;;;;5131068;27;20440;-67
2021/09/16 03:30:09;;;;;;;4.83;3.30;;;17.50;99.90;;;;;;5131307;27;20448;-68
2021/09/16 03:32:36;;;;;;;5.77;3.20;;;17.50;99.90;;;;;;5130572;27;20539;-68
2021/09/16 03:35:03;;;;;;;4.70;3.20;;;17.50;99.90;;;;;;5131481;27;20563;-68
2021/09/16 03:37:30;;;;;;;4.77;3.03;;;17.50;99.90;;;;;;5134648;27;20484;-68
2021/09/16 03:39:57;;;;;;;5.13;3.10;;;17.50;99.90;;;;;;5134890;27;20471;-68
2021/09/16 03:42:26;;;;;;;4.90;3.57;;;17.50;99.90;;;;;;5134066;27;20436;-68
2021/09/16 03:44:52;;;;;;;9.00;3.50;;;17.60;99.90;;;;;;5136537;27;20467;-68
2021/09/16 03:47:19;;;;;;;4.03;3.50;;;17.60;99.90;;;;;;5151924;27;20812;-69
2021/09/16 03:49:46;;;;;;;7.67;3.30;;;17.60;99.90;;;;;;5139863;27;20431;-69
2021/09/16 03:52:13;;;;;;;4.27;3.37;;;17.50;99.90;;;;;;5147385;27;20523;-69
2021/09/16 03:54:40;;;;;;;8.00;3.50;;;17.50;99.90;;;;;;5146388;27;20542;-68
2021/09/16 03:57:07;;;;;;;5.00;3.50;;;17.50;99.90;;;;;;5154993;27;20566;-68
2021/09/16 03:59:36;;;;;;;4.07;3.37;;;17.50;99.90;;;;;;5155304;27;20479;-68
2021/09/16 04:02:03;;;;;;;5.53;3.47;;;17.50;99.90;;;;;;5154774;27;20826;-68
2021/09/16 04:04:30;;;;;;;5.53;4.10;;;17.50;99.90;;;;;;5155374;27;20447;-66
2021/09/16 04:06:56;;;;;;;6.20;3.57;;;17.50;99.90;;;;;;5155295;27;20534;-67
2021/09/16 04:09:24;;;;;;;4.80;3.57;;;17.50;99.90;;;;;;5155552;27;20535;-66
2021/09/16 04:11:50;;;;;;;6.03;3.70;;;17.50;99.90;;;;;;5155318;27;20828;-68
2021/09/16 04:14:17;;;;;;;4.10;3.53;;;17.50;99.90;;;;;;5155469;27;20442;-68
2021/09/16 04:16:45;;;;;;;8.20;3.80;;;17.60;99.90;;;;;;5155001;27;20555;-69
2021/09/16 04:19:12;;;;;;;4.93;4.13;;;17.60;99.90;;;;;;5146235;27;20857;-68
2021/09/16 04:21:39;;;;;;;7.80;4.23;;;17.50;99.90;;;;;;5133722;27;20446;-67
2021/09/16 04:24:09;;;;;;;4.50;3.67;;;17.60;99.90;;;;;;5133864;27;20477;-68
2021/09/16 04:26:36;;;;;;;6.20;4.20;;;17.50;99.90;;;;;;5133762;27;20502;-67
2021/09/16 04:29:03;;;;;;;4.70;3.90;;;17.50;99.90;;;;;;5133792;27;20454;-68
2021/09/16 04:31:30;;;;;;;6.57;4.97;;;17.50;99.90;;;;;;5133660;27;20982;-68
2021/09/16 04:33:58;;;;;;;7.70;4.53;;;17.50;99.90;;;;;;5133314;27;20445;-68
2021/09/16 04:36:25;;;;;;;5.50;4.63;;;17.50;99.90;;;;;;5133682;27;20519;-72
2021/09/16 04:38:52;;;;;;;5.73;4.30;;;17.50;99.90;;;;;;5134029;27;20535;-69
2021/09/16 04:41:19;;;;;;;6.43;5.37;;;17.50;99.90;;;;;;5133178;27;20981;-66
2021/09/16 04:43:45;;;;;;;7.57;5.50;;;17.50;99.90;;;;;;5133231;27;20444;-69
2021/09/16 04:46:13;;;;;;;6.70;4.43;;;17.50;99.90;;;;;;5133057;27;20978;-68
2021/09/16 04:48:40;;;;;;;7.03;4.40;;;17.50;99.90;;;;;;5132370;27;20531;-68
2021/09/16 04:51:08;;;;;;;5.47;4.63;;;17.60;99.90;;;;;;5132997;27;20448;-68
2021/09/16 04:53:35;;;;;;;6.97;4.03;;;17.50;99.90;;;;;;5128933;27;20436;-68
2021/09/16 04:56:02;;;;;;;4.80;3.63;;;17.50;99.90;;;;;;5121272;27;20552;-67
2021/09/16 04:58:29;;;;;;;4.10;3.60;;;17.60;99.90;;;;;;5119001;27;20958;-66
2021/09/16 05:00:56;;;;;;;4.43;3.63;;;17.50;99.90;;;;;;5112307;28;20527;-67
2021/09/16 05:03:23;;;;;;;4.20;3.30;;;17.50;99.90;;;;;;5112134;27;20972;-68
2021/09/16 05:05:50;;;;;;;5.97;3.57;;;17.50;99.90;;;;;;5127491;27;20471;-71
2021/09/16 05:08:18;;;;;;;4.80;3.83;;;17.50;99.90;;;;;;5131083;27;20444;-69
2021/09/16 05:10:45;;;;;;;5.50;3.90;;;17.50;99.90;;;;;;5131568;27;20451;-69
2021/09/16 05:13:15;;;;;;;4.33;3.70;;;17.60;99.90;;;;;;5131099;27;20444;-69
2021/09/16 05:15:42;;;;;;;5.67;3.97;;;17.50;99.90;;;;;;5129577;27;20532;-70
2021/09/16 05:18:09;;;;;;;4.40;3.53;;;17.50;99.90;;;;;;5129541;27;20480;-69
2021/09/16 05:20:36;;;;;;;4.80;4.10;;;17.60;99.90;;;;;;5142268;27;21069;-69
2021/09/16 05:23:04;;;;;;;5.23;4.23;;;17.50;99.90;;;;;;5147902;27;20572;-69
2021/09/16 05:25:32;;;;;;;5.13;4.07;;;17.60;99.90;;;;;;5150504;27;20468;-69
2021/09/16 05:27:59;;;;;;;9.13;4.97;;;17.60;99.90;;;;;;5151444;27;20546;-69
2021/09/16 05:30:27;;;;;;;6.37;4.03;;;17.60;99.90;;;;;;5153159;27;20458;-70
2021/09/16 05:32:53;;;;;;;5.27;3.90;;;17.60;99.90;;;;;;5152803;27;20452;-69
2021/09/16 05:35:20;;;;;;;6.33;4.60;;;17.50;99.90;;;;;;5153157;27;20838;-69
2021/09/16 05:37:47;;;;;;;5.60;4.30;;;17.50;99.90;;;;;;5152902;27;21034;-70
2021/09/16 05:40:16;;;;;;;5.87;4.97;;;17.50;99.90;;;;;;5153213;27;20550;-70
2021/09/16 05:42:44;;;;;;;6.60;4.30;;;17.40;99.90;;;;;;5153204;27;20929;-69
2021/09/16 05:45:12;;;;;;;6.10;4.40;;;17.50;99.90;;;;;;5153373;27;20547;-70
2021/09/16 05:47:38;;;;;;;6.87;5.33;;;17.60;99.90;;;;;;5154256;27;20531;-70
2021/09/16 05:50:06;;;;;;;7.30;4.53;;;17.60;99.90;;;;;;5153703;27;20615;-69
2021/09/16 05:52:33;;;;;;;8.73;5.10;;;17.60;99.90;;;;;;5152513;27;20496;-69
2021/09/16 05:55:00;;;;;;;5.87;5.13;;;17.60;99.90;;;;;;5152995;27;20982;-69
2021/09/16 05:57:26;;;;;;;6.90;4.90;;;17.70;99.90;;;;;;5152658;27;20524;-69
2021/09/16 05:59:55;;;;;;;5.77;4.67;;;17.70;99.90;;;;;;5151797;27;20937;-69
2021/09/16 06:02:22;;;;;;;7.23;5.20;;;17.70;99.90;;;;;;5152549;27;20443;-69
2021/09/16 06:04:49;;;;;;;8.23;4.73;;;17.70;99.90;;;;;;5137415;27;20476;-68
2021/09/16 06:07:16;;;;;;;5.60;4.90;;;17.80;99.90;;;;;;5127761;27;20455;-69
2021/09/16 06:09:42;;;;;;;7.00;5.03;;;17.80;99.90;;;;;;5131594;27;20455;-69
2021/09/16 06:12:10;;;;;;;5.40;4.47;;;17.90;99.90;;;;;;5131446;27;20532;-69
2021/09/16 06:14:37;;;;;;;5.50;4.53;;;17.90;99.90;;;;;;5131530;27;20846;-69
2021/09/16 06:17:05;;;;;;;8.50;5.40;;;18.00;99.90;;;;;;5131612;27;20484;-69
2021/09/16 06:19:32;;;;;;;6.30;5.57;;;18.00;99.90;;;;;;5131680;27;20448;-69
2021/09/16 06:21:59;;;;;;;8.07;5.80;;;18.00;99.90;;;;;;5131044;27;20945;-69
2021/09/16 06:24:26;;;;;;;5.93;5.33;;;18.10;99.90;;;;;;5131875;27;20452;-67
2021/09/16 06:26:53;;;;;;;8.07;5.30;;;18.10;99.90;;;;;;5131802;27;20436;-66
2021/09/16 06:29:20;;;;;;;6.60;5.00;;;18.10;99.90;;;;;;5133409;27;20441;-66
2021/09/16 06:31:47;;;;;;;7.53;5.73;;;18.00;99.90;;;;;;5129102;27;20470;-66
2021/09/16 06:34:15;;;;;;;12.07;7.80;;;18.00;99.90;;;;;;5128166;27;20448;-67
2021/09/16 06:36:42;;;;;;;10.83;5.50;;;18.00;99.90;;;;;;5129968;27;20999;-66
2021/09/16 06:39:09;;;;;;;8.20;5.50;;;18.10;99.90;;;;;;5130107;27;20591;-67
2021/09/16 06:41:37;;;;;;;6.10;4.90;;;18.20;99.90;;;;;;5129556;27;21016;-66
2021/09/16 06:44:04;;;;;;;8.10;4.43;;;18.20;99.90;;;;;;5130197;27;20451;-66
2021/09/16 06:46:31;;;;;;;5.30;4.73;;;18.20;99.90;;;;;;5130131;27;20478;-67
2021/09/16 06:48:58;;;;;;;8.23;5.20;;;18.20;99.90;;;;;;5129987;27;20445;-67
2021/09/16 06:51:27;;;;;;;6.47;4.73;;;18.30;99.90;;;;;;5131174;27;20488;-67
2021/09/16 06:53:54;;;;;;;5.77;4.83;;;18.20;99.90;;;;;;5130494;27;20944;-67
2021/09/16 06:56:21;;;;;;;6.27;5.67;;;18.20;99.90;;;;;;5130559;27;20911;-68
2021/09/16 06:58:48;;;;;;;8.13;6.30;;;18.20;99.90;;;;;;5130652;27;20468;-67
2021/09/16 07:01:15;;;;;;;6.83;5.10;;;18.20;99.90;;;;;;5130104;27;20452;-67
2021/09/16 07:03:42;;;;;;;8.10;4.90;;;18.20;99.90;;;;;;5129576;27;20453;-66
2021/09/16 07:06:09;;;;;;;7.30;4.80;;;18.20;99.90;;;;;;5129721;27;20469;-67
2021/09/16 07:08:37;;;;;;;6.40;5.13;;;18.20;99.90;;;;;;5129703;27;20446;-66
2021/09/16 07:11:04;;;;;;;10.20;5.37;;;18.20;99.90;;;;;;5132365;27;20838;-66
2021/09/16 07:13:31;;;;;;;8.10;5.50;;;18.10;99.90;;;;;;5133920;27;20483;-66
2021/09/16 07:15:58;;;;;;;9.57;6.03;;;18.10;99.90;;;;;;5134009;27;20912;-67
2021/09/16 07:18:24;;;;;;;8.57;5.17;;;18.10;99.90;;;;;;5133904;27;20490;-66
2021/09/16 07:20:51;;;;;;;8.87;5.73;;;18.10;99.90;;;;;;5133807;27;20440;-66
2021/09/16 07:23:18;;;;;;;9.83;5.87;;;18.10;99.90;;;;;;5133582;27;20455;-67
2021/09/16 07:25:46;;;;;;;8.47;5.90;;;18.10;99.90;;;;;;5133947;27;20556;-67
2021/09/16 07:28:13;;;;;;;6.30;5.20;;;18.20;99.90;;;;;;5133902;27;20458;-66
2021/09/16 07:30:40;;;;;;;7.23;5.27;;;18.30;99.90;;;;;;5133835;27;20459;-66
2021/09/16 07:33:07;;;;;;;9.87;5.80;;;18.30;99.90;;;;;;5133306;27;20547;-67
2021/09/16 07:35:33;;;;;;;7.47;5.20;;;18.40;99.90;;;;;;5133560;27;20600;-66
2021/09/16 07:38:01;;;;;;;7.60;5.87;;;18.40;99.90;;;;;;5133472;27;21095;-66
2021/09/16 07:40:28;;;;;;;9.90;5.67;;;18.50;99.90;;;;;;5133831;27;20555;-67
2021/09/16 07:42:56;;;;;;;8.13;5.87;;;18.40;99.90;;;;;;5133265;27;20439;-67
2021/09/16 07:45:23;;;;;;;12.10;9.10;;;18.40;99.90;;;;;;5133652;27;20555;-69
2021/09/16 07:47:50;;;;;;;14.67;11.73;;;18.40;99.90;;;;;;5133668;27;20519;-66
2021/09/16 07:50:17;;;;;;;14.67;12.30;;;18.30;99.90;;;;;;5133687;27;20452;-67
2021/09/16 07:52:43;;;;;;;14.07;12.63;;;18.20;99.90;;;;;;5133198;27;21250;-67
2021/09/16 07:55:11;;;;;;;15.17;12.97;;;18.10;99.90;;;;;;5133565;27;20456;-66
2021/09/16 07:57:38;;;;;;;16.20;13.20;;;18.10;99.90;;;;;;5133277;27;20479;-67
2021/09/16 08:00:07;;;;;;;16.33;14.63;;;18.00;99.90;;;;;;5133279;27;20448;-67
2021/09/16 08:02:43;;;;;;;19.17;15.40;;;18.00;99.90;;;;;;5131939;27;20784;-66
2021/09/16 08:05:10;;;;;;;17.30;15.23;;;17.90;99.90;;;;;;5133355;27;20222;-66
2021/09/16 08:07:37;;;;;;;20.30;15.40;;;17.80;99.90;;;;;;5133142;27;20440;-67
2021/09/16 08:10:04;;;;;;;18.47;15.80;;;17.80;99.90;;;;;;5133183;27;20521;-66
2021/09/16 08:12:31;;;;;;;18.20;15.17;;;17.60;99.90;;;;;;5132673;27;20445;-66
2021/09/16 08:14:58;;;;;;;21.00;15.00;;;17.50;99.90;;;;;;5132692;27;21054;-65
2021/09/16 08:17:27;;;;;;;18.73;14.00;;;17.40;99.90;;;;;;5129817;27;21007;-66
2021/09/16 08:19:54;;;;;;;17.30;13.87;;;17.40;99.90;;;;;;5133515;27;20543;-66
2021/09/16 08:22:21;;;;;;;17.77;13.60;;;17.30;99.90;;;;;;5132129;27;20984;-66
2021/09/16 08:24:47;;;;;;;18.50;14.77;;;17.30;99.90;;;;;;5133509;27;20464;-67
2021/09/16 08:27:14;;;;;;;21.50;15.90;;;17.30;99.90;;;;;;5133620;27;20816;-67
2021/09/16 08:29:41;;;;;;;23.73;13.60;;;17.30;99.90;;;;;;5133474;27;20451;-67
2021/09/16 08:32:08;;;;;;;17.37;14.20;;;17.30;99.90;;;;;;5132981;27;20975;-67
2021/09/16 08:34:37;;;;;;;16.90;13.50;;;17.40;99.90;;;;;;5133265;27;21004;-66
2021/09/16 08:37:05;;;;;;;13.30;10.10;;;17.40;99.90;;;;;;5133452;27;20448;-67
2021/09/16 08:39:32;;;;;;;9.90;7.70;;;17.30;99.90;;;;;;5133517;27;20443;-67
2021/09/16 08:41:59;;;;;;;12.10;9.13;;;17.20;99.90;;;;;;5132870;27;20468;-68
2021/09/16 08:44:27;;;;;;;7.90;7.03;;;17.20;99.90;;;;;;5133050;27;20448;-68
2021/09/16 08:46:54;;;;;;;7.83;6.47;;;17.20;99.90;;;;;;5133289;27;20603;-67
2021/09/16 08:49:21;;;;;;;7.27;6.57;;;17.10;99.90;;;;;;5133400;27;20445;-68
2021/09/16 08:51:49;;;;;;;8.83;7.73;;;17.00;99.90;;;;;;5132882;27;20452;-67
2021/09/16 08:54:17;;;;;;;7.73;6.47;;;17.10;99.90;;;;;;5133283;27;20456;-67
2021/09/16 08:56:46;;;;;;;7.30;6.60;;;17.00;99.90;;;;;;5132890;27;20526;-68
2021/09/16 08:59:12;;;;;;;7.53;6.83;;;17.00;99.90;;;;;;5132854;27;21000;-68
2021/09/16 09:01:40;;;;;;;8.40;7.50;;;17.00;99.90;;;;;;5132687;27;20535;-68
2021/09/16 09:04:07;;;;;;;9.70;8.70;;;17.00;99.90;;;;;;5133012;27;20530;-67
2021/09/16 09:06:36;;;;;;;10.17;9.00;;;17.00;99.90;;;;;;5132672;27;21319;-68
2021/09/16 09:09:09;;;;;;;10.57;9.57;;;17.20;99.90;;;;;;5133065;27;20468;-68
2021/09/16 09:11:57;;;;;;;14.17;11.63;;;17.30;99.90;;;;;;5132431;27;20531;-69
2021/09/16 09:14:26;;;;;;;13.40;12.00;;;17.20;99.90;;;;;;5132694;27;20543;-68
2021/09/16 09:16:54;;;;;;;15.00;13.40;;;17.10;99.90;;;;;;5132914;27;20525;-68
2021/09/16 09:19:24;;;;;;;21.10;15.47;;;16.90;99.90;;;;;;5132560;27;20888;-67
2021/09/16 09:21:52;;;;;;;22.10;16.00;;;16.90;99.90;;;;;;5132205;27;20528;-68
2021/09/16 09:24:35;;;;;;;17.57;15.53;;;16.80;99.90;;;;;;5132669;27;20810;-68
2021/09/16 09:27:03;;;;;;;19.00;16.37;;;16.80;99.90;;;;;;5132686;27;20846;-68
2021/09/16 09:29:30;;;;;;;18.97;16.90;;;16.80;99.90;;;;;;5132454;27;20450;-68
2021/09/16 09:32:00;;;;;;;20.00;17.47;;;16.90;99.90;;;;;;5132093;27;20488;-68
2021/09/16 09:34:30;;;;;;;20.70;16.77;;;16.80;99.90;;;;;;5132105;27;20451;-68
2021/09/16 09:37:10;;;;;;;17.77;15.60;;;16.80;99.90;;;;;;5133096;27;20547;-68
2021/09/16 09:39:39;;;;;;;15.60;13.97;;;16.80;99.90;;;;;;5132289;27;20523;-68
2021/09/16 09:42:17;;;;;;;17.23;14.57;;;16.80;99.90;;;;;;5131693;27;20452;-68
2021/09/16 09:44:44;;;;;;;20.27;14.97;;;16.80;99.90;;;;;;5131754;27;20464;-68
2021/09/16 09:47:11;;;;;;;17.93;16.00;;;16.80;99.90;;;;;;5132226;27;20445;-68
2021/09/16 09:49:39;;;;;;;16.60;14.90;;;16.80;99.90;;;;;;5132251;27;20523;-69
2021/09/16 09:52:07;;;;;;;17.17;14.67;;;16.80;99.90;;;;;;5131564;27;20929;-68
2021/09/16 09:54:36;;;;;;;15.90;14.30;;;16.80;99.90;;;;;;5131734;27;20535;-68
2021/09/16 09:57:09;;;;;;;15.07;13.47;;;16.90;99.90;;;;;;5131765;27;20512;-68
2021/09/16 09:59:55;;;;;;;16.00;14.10;;;16.90;99.90;;;;;;5131911;27;20511;-68
2021/09/16 10:02:24;;;;;;;12.13;10.80;;;16.90;99.90;;;;;;5131518;27;20470;-68
2021/09/16 10:04:51;;;;;;;10.90;9.37;;;16.90;99.90;;;;;;5131624;27;20482;-68
2021/09/16 10:07:33;;;;;;;12.30;11.00;;;16.90;99.90;;;;;;5131759;27;20448;-68
2021/09/16 10:10:01;;;;;;;13.53;10.93;;;16.90;99.90;;;;;;5131545;27;20484;-68
2021/09/16 10:12:29;;;;;;;13.40;10.97;;;16.90;99.90;;;;;;5131549;27;20440;-68
2021/09/16 10:14:57;;;;;;;12.03;10.47;;;17.00;99.90;;;;;;5131345;27;20547;-68
2021/09/16 10:17:24;;;;;;;16.37;11.53;;;17.00;99.90;;;;;;5131566;27;20440;-69
2021/09/16 10:19:51;;;;;;;15.10;13.17;;;17.00;99.90;;;;;;5131406;27;20447;-68
2021/09/16 10:22:18;;;;;;;18.27;13.63;;;16.80;99.90;;;;;;5131059;27;20476;-67
2021/09/16 10:24:46;;;;;;;14.20;12.67;;;16.80;99.90;;;;;;5131601;27;20460;-68
2021/09/16 10:27:35;;;;;;;16.93;13.33;;;16.70;99.90;;;;;;5131303;27;20444;-68
2021/09/16 10:30:31;;;;;;;16.63;13.10;;;16.60;99.90;;;;;;5131299;27;20539;-68
2021/09/16 10:33:04;;;;;;;17.27;13.80;;;16.60;99.90;;;;;;5130872;27;20979;-68
2021/09/16 10:35:32;;;;;;;18.13;15.23;;;16.60;99.90;;;;;;5131186;27;20467;-68
2021/09/16 10:38:18;;;;;;;17.07;14.40;;;16.60;99.90;;;;;;5131130;27;20484;-68
2021/09/16 10:40:46;;;;;;;18.37;14.23;;;16.70;99.90;;;;;;5131021;27;20548;-68
2021/09/16 10:43:22;;;;;;;17.70;13.37;;;16.80;99.90;;;;;;5130850;27;20463;-68
2021/09/16 10:45:50;;;;;;;15.77;13.43;;;16.80;99.90;;;;;;5130350;27;20470;-68
2021/09/16 10:48:35;;;;;;;16.87;14.43;;;16.80;99.90;;;;;;5130887;27;20439;-68
2021/09/16 10:51:07;;;;;;;18.10;14.40;;;16.70;99.90;;;;;;5130925;27;20504;-68
2021/09/16 10:53:37;;;;;;;18.73;14.93;;;16.70;99.90;;;;;;5130492;27;20440;-68
2021/09/16 10:56:05;;;;;;;18.13;13.63;;;16.70;99.90;;;;;;5130988;27;20525;-68
2021/09/16 10:58:34;;;;;;;18.73;15.53;;;16.70;99.90;;;;;;5130533;27;20567;-68
2021/09/16 11:01:01;;;;;;;17.83;15.07;;;16.70;99.90;;;;;;5130934;27;20889;-67
2021/09/16 11:03:28;;;;;;;17.63;14.70;;;16.70;99.90;;;;;;5130714;27;20466;-68
2021/09/16 11:05:58;;;;;;;16.10;14.40;;;16.60;99.90;;;;;;5130657;27;20472;-67
2021/09/16 11:08:58;;;;;;;17.40;14.27;;;16.70;99.90;;;;;;5131269;27;20480;-67
2021/09/16 11:11:26;;;;;;;18.20;15.03;;;16.80;99.90;;;;;;5130904;27;20527;-68
2021/09/16 11:13:57;;;;;;;19.30;15.90;;;16.80;99.90;;;;;;5131019;27;20519;-69
2021/09/16 11:16:26;;;;;;;17.70;15.23;;;16.80;99.90;;;;;;5131052;27;20474;-68
2021/09/16 11:19:05;;;;;;;16.53;14.73;;;16.80;99.90;;;;;;5130985;27;20570;-68
2021/09/16 11:21:33;;;;;;;18.87;15.40;;;16.90;99.90;;;;;;5130584;27;20474;-67
2021/09/16 11:24:05;;;;;;;16.30;13.93;;;16.90;99.90;;;;;;5130848;27;20444;-68
2021/09/16 11:26:32;;;;;;;17.70;14.87;;;16.90;99.90;;;;;;5130549;27;20551;-68
2021/09/16 11:29:03;;;;;;;17.33;14.47;;;17.00;99.90;;;;;;5130640;27;20441;-68
2021/09/16 11:31:31;;;;;;;16.77;14.73;;;17.00;99.90;;;;;;5130501;27;20455;-68
2021/09/16 11:34:13;;;;;;;15.60;13.90;;;17.10;99.90;;;;;;5130521;27;20479;-68
2021/09/16 11:37:11;;;;;;;16.70;14.90;;;17.20;99.90;;;;;;5130432;27;20469;-68
2021/09/16 11:39:39;;;;;;;20.20;15.10;;;17.20;99.90;;;;;;5130711;27;20563;-68
2021/09/16 11:42:20;;;;;;;16.50;14.70;;;17.30;99.90;;;;;;5130351;27;20452;-68
2021/09/16 11:45:12;;;;;;;19.77;15.57;;;17.50;99.90;;;;;;5130526;27;20456;-67
2021/09/16 11:47:45;;;;;;;15.73;13.10;;;17.60;99.90;;;;;;5126673;27;20540;-67
2021/09/16 11:50:24;;;;;;;16.43;13.47;;;17.80;99.90;;;;;;5119488;28;20953;-67
2021/09/16 11:52:55;;;;;;;15.90;12.70;;;18.00;99.90;;;;;;5119071;28;20441;-67
2021/09/16 11:55:22;;;;;;;15.00;12.30;;;18.20;99.90;;;;;;5118863;28;20469;-68
2021/09/16 11:58:07;;;;;;;14.77;13.20;;;18.20;99.90;;;;;;5122131;27;20446;-67
2021/09/16 12:00:41;;;;;;;13.60;12.20;;;18.20;99.90;;;;;;5118170;27;20831;-67
2021/09/16 12:03:09;;;;;;;16.47;13.40;;;18.10;99.90;;;;;;5116225;27;20453;-67
2021/09/16 12:05:38;;;;;;;13.93;12.50;;;18.10;99.90;;;;;;5114160;27;20853;-67
2021/09/16 12:08:07;;;;;;;15.23;13.63;;;18.00;99.90;;;;;;5115571;27;20577;-67
2021/09/16 12:10:43;;;;;;;15.73;12.57;;;18.00;99.90;;;;;;5113587;27;20457;-68
2021/09/16 12:13:13;;;;;;;15.63;12.93;;;18.00;99.90;;;;;;5120824;27;20456;-68
2021/09/16 12:15:46;;;;;;;15.90;13.30;;;17.90;99.90;;;;;;5122232;27;20576;-68
2021/09/16 12:18:13;;;;;;;14.53;12.73;;;17.90;99.90;;;;;;5120685;27;20453;-68
2021/09/16 12:20:41;;;;;;;18.90;13.63;;;17.90;99.90;;;;;;5121416;27;20534;-67
2021/09/16 12:23:11;;;;;;;15.03;13.13;;;17.90;99.90;;;;;;5118598;27;20459;-68
2021/09/16 12:26:01;;;;;;;15.83;12.33;;;18.10;99.90;;;;;;5120659;27;20471;-67
2021/09/16 12:28:30;;;;;;;14.83;12.67;;;18.30;99.90;;;;;;5121452;27;20535;-68
2021/09/16 12:31:07;;;;;;;13.80;12.30;;;18.50;99.90;;;;;;5129069;27;20476;-67
2021/09/16 12:33:39;;;;;;;15.43;12.70;;;19.00;99.90;;;;;;5132553;27;20472;-67
2021/09/16 12:36:28;;;;;;;16.73;13.70;;;19.50;99.90;;;;;;5131592;27;20559;-68
2021/09/16 12:39:00;;;;;;;13.60;11.93;;;19.60;99.90;;;;;;5128729;27;21135;-67
2021/09/16 12:41:34;;;;;;;13.60;12.20;;;19.60;99.90;;;;;;5132649;27;20462;-68
2021/09/16 12:44:05;;;;;;;14.13;12.20;;;19.80;99.90;;;;;;5133125;27;20471;-66
2021/09/16 12:46:54;;;;;;;13.97;12.67;;;19.70;99.90;;;;;;5133268;27;20470;-68
2021/09/16 12:49:29;;;;;;;16.23;14.00;;;19.70;99.90;;;;;;5133454;27;20523;-69